createdAt,value
2022-11-03T00:02:13.469Z,50.37
2022-11-03T00:04:40.979Z,31.33
2022-11-03T00:07:08.344Z,34.83
2022-11-03T00:09:36.302Z,18.95
2022-11-03T00:12:03.912Z,20.75
2022-11-03T00:14:31.591Z,22.40
2022-11-03T00:16:59.108Z,13.98
2022-11-03T00:19:26.534Z,14.50
2022-11-03T00:21:53.965Z,15.07
2022-11-03T00:24:21.425Z,16.73
2022-11-03T00:26:48.804Z,14.02
2022-11-03T00:29:16.303Z,10.63
2022-11-03T00:31:44.851Z,9.75
2022-11-03T00:34:12.786Z,9.32
2022-11-03T00:36:44.740Z,8.15
2022-11-03T00:39:13.151Z,11.70
2022-11-03T00:41:40.853Z,13.05
2022-11-03T00:44:10.367Z,14.75
2022-11-03T00:46:37.795Z,18.23
2022-11-03T00:49:05.721Z,17.67
2022-11-03T00:51:34.959Z,10.20
2022-11-03T00:54:04.111Z,13.25
2022-11-03T00:56:34.358Z,10.88
2022-11-03T00:59:03.427Z,12.32
2022-11-03T01:01:42.153Z,12.73
2022-11-03T01:04:30.169Z,7.03
2022-11-03T01:06:59.808Z,9.38
2022-11-03T01:09:38.363Z,8.55
2022-11-03T01:12:08.765Z,5.30
2022-11-03T01:14:47.891Z,9.32
2022-11-03T01:17:18.195Z,11.57
2022-11-03T01:19:46.197Z,6.25
2022-11-03T01:22:14.937Z,6.10
2022-11-03T01:24:43.195Z,19.35
2022-11-03T01:29:41.237Z,9.23
2022-11-03T01:32:09.035Z,6.97
2022-11-03T01:34:37.567Z,5.38
2022-11-03T01:37:05.140Z,6.72
2022-11-03T01:39:32.764Z,4.80
2022-11-03T01:42:00.532Z,7.38
2022-11-03T01:44:30.931Z,4.18
2022-11-03T01:47:14.330Z,9.57
2022-11-03T01:49:47.948Z,7.53
2022-11-03T01:52:34.034Z,7.97
2022-11-03T01:55:06.871Z,6.07
2022-11-03T01:57:49.053Z,5.30
2022-11-03T02:00:16.884Z,8.20
2022-11-03T02:02:45.373Z,7.65
2022-11-03T02:05:16.707Z,6.53
2022-11-03T02:07:50.998Z,4.47
2022-11-03T02:10:18.758Z,3.97
2022-11-03T02:12:47.221Z,7.20
2022-11-03T02:15:16.920Z,6.45
2022-11-03T02:17:45.875Z,9.63
2022-11-03T02:20:28.234Z,8.30
2022-11-03T02:23:20.342Z,10.45
2022-11-03T02:25:49.140Z,5.38
2022-11-03T02:28:22.509Z,5.25
2022-11-03T02:30:53.174Z,6.88
2022-11-03T02:33:28.205Z,10.25
2022-11-03T02:36:01.592Z,6.85
2022-11-03T02:38:31.911Z,12.52
2022-11-03T02:41:02.981Z,14.07
2022-11-03T02:43:31.513Z,13.80
2022-11-03T02:45:59.664Z,10.63
2022-11-03T02:48:27.452Z,21.92
2022-11-03T02:50:54.953Z,16.48
2022-11-03T02:53:22.378Z,16.70
2022-11-03T02:56:05.864Z,16.60
2022-11-03T02:58:45.273Z,17.80
2022-11-03T03:01:21.639Z,24.33
2022-11-03T03:03:53.114Z,23.15
2022-11-03T03:06:27.350Z,21.48
2022-11-03T03:08:59.261Z,21.80
2022-11-03T03:11:39.443Z,25.92
2022-11-03T03:14:17.201Z,27.15
2022-11-03T03:16:59.632Z,23.80
2022-11-03T03:19:37.916Z,29.63
2022-11-03T03:22:16.718Z,29.60
2022-11-03T03:24:52.460Z,31.10
2022-11-03T03:27:24.259Z,34.53
2022-11-03T03:30:08.032Z,33.40
2022-11-03T03:32:47.025Z,32.83
2022-11-03T03:35:19.216Z,32.00
2022-11-03T03:37:50.535Z,32.20
2022-11-03T03:40:24.271Z,30.80
2022-11-03T03:42:52.813Z,37.40
2022-11-03T03:45:20.901Z,29.10
2022-11-03T03:47:48.604Z,25.23
2022-11-03T03:50:16.728Z,27.00
2022-11-03T03:52:44.173Z,28.60
2022-11-03T03:57:57.949Z,32.28
2022-11-03T04:00:26.945Z,26.17
2022-11-03T04:02:58.033Z,22.63
2022-11-03T04:05:26.474Z,16.23
2022-11-03T04:07:54.029Z,26.17
2022-11-03T04:10:22.888Z,22.27
2022-11-03T04:13:09.631Z,19.80
2022-11-03T04:15:52.002Z,16.45
2022-11-03T04:18:39.240Z,21.30
2022-11-03T04:21:27.469Z,16.70
2022-11-03T04:23:55.106Z,20.83
2022-11-03T04:26:23.042Z,25.13
2022-11-03T04:28:52.915Z,15.27
2022-11-03T04:31:21.397Z,16.88
2022-11-03T04:33:49.401Z,23.02
2022-11-03T04:36:23.029Z,23.15
2022-11-03T04:38:51.697Z,23.77
2022-11-03T04:41:29.662Z,19.70
2022-11-03T04:43:57.295Z,23.25
2022-11-03T04:46:29.155Z,23.67
2022-11-03T04:49:01.756Z,20.98
2022-11-03T04:51:33.219Z,24.15
2022-11-03T04:54:15.403Z,23.10
2022-11-03T04:56:42.943Z,19.08
2022-11-03T04:59:16.021Z,19.60
2022-11-03T05:01:45.229Z,18.58
2022-11-03T05:04:18.327Z,19.00
2022-11-03T05:06:53.473Z,21.90
2022-11-03T05:09:27.225Z,21.15
2022-11-03T05:11:54.650Z,18.15
2022-11-03T05:14:23.316Z,16.43
2022-11-03T05:16:53.718Z,17.27
2022-11-03T05:19:28.487Z,20.00
2022-11-03T05:21:58.152Z,18.77
2022-11-03T05:24:25.923Z,15.38
2022-11-03T05:26:55.977Z,22.42
2022-11-03T05:29:29.165Z,14.38
2022-11-03T05:31:57.193Z,15.38
2022-11-03T05:34:32.673Z,19.27
2022-11-03T05:37:25.891Z,19.48
2022-11-03T05:40:13.734Z,21.27
2022-11-03T05:42:45.156Z,16.60
2022-11-03T05:45:24.219Z,20.08
2022-11-03T05:47:55.397Z,24.80
2022-11-03T05:50:27.480Z,28.38
2022-11-03T05:53:19.384Z,26.30
2022-11-03T05:55:46.921Z,25.90
2022-11-03T05:58:35.038Z,19.27
2022-11-03T06:01:19.102Z,30.55
2022-11-03T06:03:47.238Z,22.08
2022-11-03T06:06:53.955Z,29.30
2022-11-03T06:09:24.689Z,38.17
2022-11-03T06:11:55.632Z,25.75
2022-11-03T06:14:25.597Z,22.05
2022-11-03T06:16:57.301Z,33.42
2022-11-03T06:19:30.441Z,28.17
2022-11-03T06:22:02.661Z,32.72
2022-11-03T06:24:32.193Z,26.60
2022-11-03T06:26:59.829Z,29.08
2022-11-03T06:29:31.794Z,30.10
2022-11-03T06:31:59.406Z,23.13
2022-11-03T06:34:47.837Z,14.63
2022-11-03T06:37:34.188Z,15.18
2022-11-03T06:40:27.967Z,9.52
2022-11-03T06:42:58.505Z,4.47
2022-11-03T06:45:26.586Z,6.68
2022-11-03T06:47:54.525Z,3.30
2022-11-03T06:50:32.297Z,7.43
2022-11-03T06:53:03.966Z,5.75
2022-11-03T06:55:34.313Z,8.95
2022-11-03T06:58:22.932Z,10.68
2022-11-03T07:00:51.616Z,10.20
2022-11-03T07:03:35.146Z,13.05
2022-11-03T07:06:14.279Z,14.43
2022-11-03T07:08:46.627Z,13.93
2022-11-03T07:11:20.147Z,21.08
2022-11-03T07:13:53.564Z,14.18
2022-11-03T07:16:41.636Z,13.70
2022-11-03T07:19:20.804Z,13.75
2022-11-03T07:21:55.360Z,21.27
2022-11-03T07:24:27.097Z,20.42
2022-11-03T07:27:01.821Z,27.23
2022-11-03T07:29:31.194Z,21.17
2022-11-03T07:32:00.285Z,22.45
2022-11-03T07:34:33.373Z,23.05
2022-11-03T07:37:01.083Z,27.80
2022-11-03T07:39:34.908Z,19.25
2022-11-03T07:42:19.419Z,18.00
2022-11-03T07:44:47.955Z,20.73
2022-11-03T07:47:20.118Z,20.48
2022-11-03T07:49:48.235Z,20.92
2022-11-03T07:54:46.349Z,12.68
2022-11-03T07:57:27.774Z,14.70
2022-11-03T08:00:03.859Z,17.08
2022-11-03T08:03:01.066Z,10.30
2022-11-03T08:05:29.082Z,13.77
2022-11-03T08:07:56.520Z,14.68
2022-11-03T08:10:24.155Z,15.90
2022-11-03T08:12:51.561Z,12.10
2022-11-03T08:15:18.980Z,12.80
2022-11-03T08:17:46.356Z,10.88
2022-11-03T08:20:14.171Z,15.83
2022-11-03T08:22:46.097Z,12.15
2022-11-03T08:25:17.384Z,11.40
2022-11-03T08:27:44.841Z,14.67
2022-11-03T08:30:12.822Z,12.57
2022-11-03T08:32:40.229Z,7.53
2022-11-03T08:35:07.971Z,7.57
2022-11-03T08:37:35.470Z,10.13
2022-11-03T08:40:04.471Z,8.80
2022-11-03T08:42:31.929Z,10.38
2022-11-03T08:44:59.321Z,11.52
2022-11-03T08:47:27.407Z,11.25
2022-11-03T08:49:55.032Z,9.18
2022-11-03T08:52:22.609Z,9.90
2022-11-03T08:54:50.229Z,12.20
2022-11-03T08:57:17.685Z,7.22
2022-11-03T08:59:45.153Z,8.00
2022-11-03T09:02:12.666Z,6.50
2022-11-03T09:04:40.146Z,10.38
2022-11-03T09:07:07.519Z,13.43
2022-11-03T09:12:22.645Z,8.25
2022-11-03T09:14:50.042Z,9.20
2022-11-03T09:17:17.490Z,10.55
2022-11-03T09:19:44.978Z,18.10
2022-11-03T09:22:12.670Z,14.52
2022-11-03T09:24:40.763Z,13.57
2022-11-03T09:29:58.536Z,8.43
2022-11-03T09:32:23.822Z,8.60
2022-11-03T09:34:51.422Z,21.42
2022-11-03T09:37:20.275Z,10.63
2022-11-03T09:39:47.850Z,14.35
2022-11-03T09:42:16.738Z,7.63
2022-11-03T09:44:46.433Z,8.35
2022-11-03T09:47:25.152Z,9.88
2022-11-03T09:49:52.666Z,6.07
2022-11-03T09:52:24.219Z,9.95
2022-11-03T09:54:55.262Z,7.45
2022-11-03T09:57:23.290Z,7.90
2022-11-03T09:59:51.323Z,14.98
2022-11-03T10:02:28.353Z,13.40
2022-11-03T10:04:58.419Z,10.70
2022-11-03T10:07:28.290Z,19.45
2022-11-03T10:09:58.692Z,11.25
2022-11-03T10:12:27.247Z,9.98
2022-11-03T10:14:55.010Z,11.38
2022-11-03T10:17:27.814Z,9.82
2022-11-03T10:19:58.119Z,15.73
2022-11-03T10:22:27.995Z,17.63
2022-11-03T10:25:36.052Z,14.55
2022-11-03T10:28:17.191Z,11.73
2022-11-03T10:31:20.976Z,11.43
2022-11-03T10:33:53.820Z,13.02
2022-11-03T10:36:39.077Z,7.95
2022-11-03T10:39:25.536Z,10.82
2022-11-03T10:41:58.662Z,13.02
2022-11-03T10:44:28.726Z,9.10
2022-11-03T10:46:59.503Z,12.85
2022-11-03T10:49:39.311Z,7.70
2022-11-03T10:52:24.761Z,8.80
2022-11-03T10:54:55.003Z,6.78
2022-11-03T10:57:23.489Z,13.55
2022-11-03T10:59:53.695Z,8.10
2022-11-03T11:02:24.850Z,10.57
2022-11-03T11:04:59.268Z,10.13
2022-11-03T11:07:39.960Z,9.55
2022-11-03T11:10:07.959Z,14.32
2022-11-03T11:12:35.672Z,14.20
2022-11-03T11:15:07.297Z,18.65
2022-11-03T11:17:37.533Z,27.35
2022-11-03T11:20:22.162Z,22.48
2022-11-03T11:22:51.270Z,20.48
2022-11-03T11:25:19.048Z,19.67
2022-11-03T11:27:47.518Z,18.15
2022-11-03T11:30:20.911Z,13.63
2022-11-03T11:33:12.987Z,8.23
2022-11-03T11:35:40.494Z,9.00
2022-11-03T11:38:44.520Z,9.40
2022-11-03T11:41:11.963Z,7.57
2022-11-03T11:43:39.370Z,13.33
2022-11-03T11:46:31.637Z,10.23
2022-11-03T11:49:02.173Z,9.00
2022-11-03T11:51:34.219Z,7.68
2022-11-03T11:54:17.670Z,11.30
2022-11-03T11:56:48.786Z,7.18
2022-11-03T11:59:24.606Z,7.88
2022-11-03T12:01:55.578Z,6.55
2022-11-03T12:04:26.756Z,12.63
2022-11-03T12:06:55.715Z,8.40
2022-11-03T12:09:30.514Z,7.75
2022-11-03T12:12:05.294Z,11.07
2022-11-03T12:14:39.823Z,10.10
2022-11-03T12:17:17.291Z,11.38
2022-11-03T12:19:54.669Z,6.85
2022-11-03T12:22:24.933Z,9.55
2022-11-03T12:24:53.689Z,7.65
2022-11-03T12:27:41.850Z,10.55
2022-11-03T12:30:14.639Z,12.30
2022-11-03T12:32:42.071Z,6.45
2022-11-03T12:35:10.367Z,11.88
2022-11-03T12:37:38.447Z,8.13
2022-11-03T12:40:06.812Z,6.88
2022-11-03T12:42:35.106Z,8.63
2022-11-03T12:47:30.914Z,13.02
2022-11-03T12:49:58.389Z,6.82
2022-11-03T12:52:25.872Z,5.25
2022-11-03T12:54:53.270Z,10.35
2022-11-03T12:57:20.686Z,5.72
2022-11-03T12:59:48.090Z,7.80
2022-11-03T13:02:15.779Z,10.02
2022-11-03T13:04:43.330Z,8.00
2022-11-03T13:07:10.749Z,7.63
2022-11-03T13:09:38.174Z,6.65
2022-11-03T13:12:24.501Z,6.18
2022-11-03T13:14:52.184Z,4.18
2022-11-03T13:17:19.615Z,6.97
2022-11-03T13:19:47.015Z,7.47
2022-11-03T13:22:14.413Z,9.52
2022-11-03T13:24:41.824Z,6.28
2022-11-03T13:27:09.559Z,8.35
2022-11-03T13:29:37.068Z,4.72
2022-11-03T13:32:04.952Z,8.15
2022-11-03T13:34:32.480Z,7.18
2022-11-03T13:37:05.234Z,10.00
2022-11-03T13:39:32.882Z,8.90
2022-11-03T13:42:00.321Z,6.45
2022-11-03T13:44:27.829Z,7.15
2022-11-03T13:46:55.252Z,4.67
2022-11-03T13:49:59.113Z,6.10
2022-11-03T13:52:10.170Z,5.53
2022-11-03T14:00:14.279Z,8.02
2022-11-03T14:05:29.999Z,6.38
2022-11-03T14:07:57.574Z,7.67
2022-11-03T14:10:24.990Z,9.35
2022-11-03T14:12:52.571Z,9.55
2022-11-03T14:15:20.019Z,8.48
2022-11-03T14:17:47.549Z,7.82
2022-11-03T14:20:15.231Z,8.70
2022-11-03T14:22:42.770Z,5.10
2022-11-03T14:25:10.190Z,8.27
2022-11-03T14:27:37.691Z,9.52
2022-11-03T14:30:05.977Z,6.20
2022-11-03T14:35:04.731Z,6.50
2022-11-03T14:37:33.213Z,2.92
2022-11-03T14:40:03.753Z,8.07
2022-11-03T14:42:31.531Z,8.02
2022-11-03T14:44:59.905Z,7.13
2022-11-03T14:47:34.704Z,6.85
2022-11-03T14:50:03.455Z,7.30
2022-11-03T14:52:31.122Z,8.20
2022-11-03T14:54:58.671Z,8.52
2022-11-03T14:57:26.095Z,12.40
2022-11-03T14:59:56.035Z,5.90
2022-11-03T15:02:24.942Z,4.10
2022-11-03T15:04:52.471Z,8.95
2022-11-03T15:07:19.914Z,8.55
2022-11-03T15:09:47.489Z,11.30
2022-11-03T15:12:14.924Z,8.77
2022-11-03T15:14:42.390Z,14.85
2022-11-03T15:17:09.889Z,8.75
2022-11-03T15:19:37.345Z,16.30
2022-11-03T15:22:04.890Z,9.88
2022-11-03T15:27:20.051Z,12.57
2022-11-03T15:29:47.718Z,13.68
2022-11-03T15:32:15.466Z,9.68
2022-11-03T15:34:42.952Z,7.38
2022-11-03T15:37:10.556Z,8.48
2022-11-03T15:39:38.223Z,9.23
2022-11-03T15:42:05.781Z,8.95
2022-11-03T15:44:33.212Z,8.30
2022-11-03T15:47:00.735Z,9.82
2022-11-03T15:49:28.530Z,10.02
2022-11-03T15:51:56.023Z,5.57
2022-11-03T15:54:25.844Z,7.95
2022-11-03T15:56:54.487Z,7.03
2022-11-03T15:59:22.267Z,7.45
2022-11-03T16:01:49.837Z,8.77
2022-11-03T16:04:17.575Z,5.95
2022-11-03T16:09:32.535Z,9.13
2022-11-03T16:12:00.072Z,7.38
2022-11-03T16:14:27.765Z,6.95
2022-11-03T16:16:57.747Z,10.38
2022-11-03T16:19:25.227Z,9.95
2022-11-03T16:21:52.992Z,9.88
2022-11-03T16:24:20.568Z,10.88
2022-11-03T16:26:47.972Z,14.02
2022-11-03T16:29:15.369Z,8.10
2022-11-03T16:31:42.983Z,13.70
2022-11-03T16:34:10.456Z,16.58
2022-11-03T16:36:38.820Z,11.88
2022-11-03T16:39:06.305Z,12.20
2022-11-03T16:41:34.837Z,13.00
2022-11-03T16:44:05.415Z,11.27
2022-11-03T16:46:36.369Z,16.13
2022-11-03T16:49:04.056Z,15.15
2022-11-03T16:51:31.873Z,16.90
2022-11-03T16:54:00.107Z,10.63
2022-11-03T16:58:54.822Z,10.23
2022-11-03T17:01:22.359Z,12.60
2022-11-03T17:03:52.426Z,16.25
2022-11-03T17:06:19.964Z,19.88
2022-11-03T17:08:52.878Z,27.70
2022-11-03T17:11:36.100Z,25.92
2022-11-03T17:14:06.141Z,27.67
2022-11-03T17:16:34.713Z,23.73
2022-11-03T17:19:02.616Z,18.83
2022-11-03T17:21:30.094Z,20.85
2022-11-03T17:23:59.824Z,19.20
2022-11-03T17:26:56.736Z,17.92
2022-11-03T17:29:31.646Z,15.07
2022-11-03T17:31:59.615Z,16.83
2022-11-03T17:34:27.410Z,22.65
2022-11-03T17:36:54.906Z,20.88
2022-11-03T17:39:29.110Z,18.48
2022-11-03T17:42:18.339Z,18.15
2022-11-03T17:44:47.553Z,18.90
2022-11-03T17:47:16.353Z,18.42
2022-11-03T17:49:44.424Z,16.85
2022-11-03T17:52:41.239Z,15.27
2022-11-03T17:55:29.279Z,17.07
2022-11-03T18:00:27.824Z,18.65
2022-11-03T18:02:56.278Z,22.35
2022-11-03T18:05:30.485Z,18.48
2022-11-03T18:08:01.669Z,16.88
2022-11-03T18:10:34.055Z,18.73
2022-11-03T18:13:18.278Z,19.35
2022-11-03T18:15:57.486Z,27.02
2022-11-03T18:18:35.234Z,22.38
2022-11-03T18:21:03.105Z,25.40
2022-11-03T18:23:35.473Z,26.20
2022-11-03T18:26:10.415Z,23.42
2022-11-03T18:28:37.915Z,20.77
2022-11-03T18:31:12.067Z,26.55
2022-11-03T18:33:39.803Z,21.08
2022-11-03T18:36:07.613Z,26.70
2022-11-03T18:38:36.680Z,23.30
2022-11-03T18:41:24.129Z,28.85
2022-11-03T18:43:51.716Z,26.45
2022-11-03T18:46:19.179Z,28.60
2022-11-03T18:48:46.679Z,31.15
2022-11-03T18:51:14.113Z,30.10
2022-11-03T18:53:41.880Z,30.33
2022-11-03T18:56:12.155Z,35.10
2022-11-03T18:58:40.079Z,30.77
2022-11-03T19:01:09.949Z,30.15
2022-11-03T19:03:38.348Z,35.47
2022-11-03T19:06:05.835Z,31.10
2022-11-03T19:08:33.746Z,29.42
2022-11-03T19:11:04.265Z,35.67
2022-11-03T19:13:46.261Z,38.50
2022-11-03T19:16:17.378Z,39.53
2022-11-03T19:18:45.456Z,43.97
2022-11-03T19:21:15.871Z,44.03
2022-11-03T19:23:47.735Z,45.65
2022-11-03T19:26:20.990Z,52.05
2022-11-03T19:28:54.086Z,42.85
2022-11-03T19:31:33.017Z,45.83
2022-11-03T19:34:01.479Z,40.80
2022-11-03T19:36:31.335Z,44.05
2022-11-03T19:39:00.195Z,43.38
2022-11-03T19:41:46.219Z,45.42
2022-11-03T19:44:14.140Z,51.13
2022-11-03T19:46:42.220Z,53.67
2022-11-03T19:51:39.898Z,41.85
2022-11-03T19:54:21.940Z,57.60
2022-11-03T19:56:49.434Z,36.60
2022-11-03T19:59:17.983Z,54.38
2022-11-03T20:01:45.729Z,45.10
2022-11-03T20:04:15.611Z,46.53
2022-11-03T20:06:43.122Z,37.30
2022-11-03T20:09:16.987Z,36.50
2022-11-03T20:11:45.189Z,44.72
2022-11-03T20:16:43.872Z,44.17
2022-11-03T20:19:14.222Z,44.22
2022-11-03T20:21:41.786Z,34.65
2022-11-03T20:24:14.393Z,42.97
2022-11-03T20:26:41.842Z,42.38
2022-11-03T20:29:14.751Z,50.80
2022-11-03T20:31:49.039Z,45.72
2022-11-03T20:34:16.865Z,57.65
2022-11-03T20:36:44.784Z,51.70
2022-11-03T20:39:18.058Z,54.97
2022-11-03T20:41:52.135Z,59.30
2022-11-03T20:44:19.651Z,45.65
2022-11-03T20:46:47.182Z,55.10
2022-11-03T20:49:14.635Z,48.75
2022-11-03T20:51:45.113Z,49.38
2022-11-03T20:54:20.466Z,46.28
2022-11-03T20:56:48.201Z,41.78
2022-11-03T20:59:17.796Z,44.83
2022-11-03T21:01:45.878Z,45.80
2022-11-03T21:04:19.281Z,50.33
2022-11-03T21:06:47.204Z,34.78
2022-11-03T21:09:17.892Z,45.80
2022-11-03T21:11:46.905Z,38.22
2022-11-03T21:14:30.804Z,39.65
2022-11-03T21:17:16.919Z,39.15
2022-11-03T21:19:59.300Z,49.53
2022-11-03T21:22:53.686Z,47.17
2022-11-03T21:25:23.398Z,44.03
2022-11-03T21:27:51.413Z,43.22
2022-11-03T21:30:19.516Z,49.25
2022-11-03T21:35:18.176Z,41.42
2022-11-03T21:37:45.653Z,36.88
2022-11-03T21:40:13.331Z,36.70
2022-11-03T21:42:59.415Z,32.35
2022-11-03T21:45:27.269Z,26.83
2022-11-03T21:48:14.575Z,27.27
2022-11-03T21:50:42.864Z,24.13
2022-11-03T21:53:11.712Z,21.52
2022-11-03T21:55:40.178Z,23.52
2022-11-03T21:58:07.813Z,26.80
2022-11-03T22:00:35.325Z,17.20
2022-11-03T22:03:02.984Z,11.68
2022-11-03T22:05:30.498Z,18.35
2022-11-03T22:07:57.955Z,15.18
2022-11-03T22:10:25.561Z,16.23
2022-11-03T22:12:53.191Z,12.23
2022-11-03T22:15:39.019Z,12.63
2022-11-03T22:18:07.385Z,14.43
2022-11-03T22:20:56.879Z,13.85
2022-11-03T22:23:42.805Z,14.75
2022-11-03T22:26:31.835Z,20.40
2022-11-03T22:29:17.630Z,26.80
2022-11-03T22:31:45.125Z,21.75
2022-11-03T22:34:31.729Z,23.52
2022-11-03T22:36:59.332Z,19.45
2022-11-03T22:39:45.619Z,30.65
2022-11-03T22:42:31.772Z,22.48
2022-11-03T22:45:37.504Z,25.02
2022-11-03T22:48:05.235Z,37.63
2022-11-03T22:50:33.084Z,25.40
2022-11-03T22:53:20.505Z,28.48
2022-11-03T22:55:47.963Z,30.13
2022-11-03T22:58:15.401Z,25.30
2022-11-03T23:00:43.114Z,32.15
2022-11-03T23:03:10.927Z,43.58
2022-11-03T23:05:38.611Z,34.20
2022-11-03T23:08:06.238Z,43.38
2022-11-03T23:10:33.671Z,44.08
2022-11-03T23:13:01.457Z,42.92
2022-11-03T23:18:19.170Z,44.92
2022-11-03T23:21:05.640Z,47.22
2022-11-03T23:23:53.206Z,52.33
2022-11-03T23:26:21.521Z,43.50
2022-11-03T23:31:17.235Z,42.30
2022-11-03T23:33:45.030Z,39.63
2022-11-03T23:36:15.181Z,43.72
2022-11-03T23:38:43.079Z,45.25
2022-11-03T23:41:16.294Z,46.80
2022-11-03T23:43:44.575Z,45.15
2022-11-03T23:48:59.010Z,41.67
2022-11-03T23:51:29.092Z,38.17
2022-11-03T23:53:57.647Z,49.83
2022-11-03T23:56:47.002Z,51.97
2022-11-03T23:59:16.615Z,36.63
